• Join FlightAware (Why Join?)
  • Login
  • US Flag 
11:48PM EDT


 

Airport Tracker/Info


-or-


 

Live Flight TrackerFlight Track Log ✈ UAL1116 ✈ 06-Jan-2014 ✈ KSFO - KDEN

Flight Track Log - Related Links

Times and Time Zones

All times are in EST time to prevent confusion due to time zone crossing. See the UAL1116 flight status page for this flight to view local times or setup timezone preferences in your user account.

Time Position Orientation Groundspeed Altitude Reporting Facility
EST Latitude Longitude Course Direction KTS MPH feet Rate Location/Type
11:57PM 38.4681 -117.8229 81° East  Level Estimated
11:58PM 38.4970 -117.6649 77° East  Level FlightAware Approximate
11:59PM 38.5257 -117.5067 77° East  Level FlightAware Approximate
12:00AM 38.5513 -117.3476 81° East  Level Estimated
12:01AM 38.5792 -117.1892 77° East  Level FlightAware Approximate
12:02AM 38.6069 -117.0305 77° East  Level FlightAware Approximate
12:03AM 38.6344 -116.8718 77° East  Level FlightAware Approximate
12:04AM 38.6617 -116.7130 78° East  Level FlightAware Approximate
12:05AM 38.6861 -116.5533 77° East  Level Estimated
12:06AM 38.7140 -116.3945 77° East  Level FlightAware Approximate
12:07AM 38.7417 -116.2356 77° East  Level FlightAware Approximate
12:08AM 38.7691 -116.0765 77° East  Level FlightAware Approximate
12:09AM 38.7925 -115.9164 76° East  Level Estimated
12:10AM 38.8211 -115.7575 77° East  Level FlightAware Approximate
12:11AM 38.8494 -115.5986 77° East  Level FlightAware Approximate
12:12AM 38.8776 -115.4395 77° East  Level FlightAware Approximate
12:13AM 38.9055 -115.2803 77° East  Level FlightAware Approximate
12:14AM 38.9275 -115.1195 81° East  Level Estimated
12:15AM 38.9492 -114.9585 77° East  Level Estimated
12:16AM 38.9777 -114.7993 77° East  Level FlightAware Approximate
12:17AM 39.0059 -114.6400 77° East  Level FlightAware Approximate
12:18AM 39.0339 -114.4805 77° East  Level FlightAware Approximate
12:19AM 39.0544 -114.3191 77° East  Level Estimated
12:20AM 39.0831 -114.1597 77° East  Level FlightAware Approximate
12:21AM 39.1116 -114.0002 77° East  Level FlightAware Approximate
12:22AM 39.1311 -113.8384 78° East  Level Estimated
12:23AM 39.1599 -113.6788 77° East  Level FlightAware Approximate
12:24AM 39.1885 -113.5192 77° East  Level FlightAware Approximate
12:25AM 39.2071 -113.3570 81° East  Level Estimated
12:26AM 39.2353 -113.1972 77° East  Level FlightAware Approximate
12:27AM 39.2634 -113.0372 77° East  Level FlightAware Approximate
12:28AM 39.2912 -112.8771 77° East  Level FlightAware Approximate
12:29AM 39.3083 -112.7144 77° East  Level Estimated
12:30AM 39.3370 -112.5545 77° East  Level FlightAware Approximate
12:31AM 39.3656 -112.3944 77° East  Level FlightAware Approximate
12:32AM 39.3939 -112.2342 77° East  Level FlightAware Approximate
12:33AM 39.4093 -112.0710 76° East  Level Estimated
12:34AM 39.4386 -111.9110 77° East  Level FlightAware Approximate
12:35AM 39.4677 -111.7508 77° East  Level FlightAware Approximate
12:36AM 39.4967 -111.5906 77° East  Level FlightAware Approximate
12:37AM 39.5101 -111.4269 90° East  Level Estimated
12:38AM 39.5244 -111.2495 79° East  Level Estimated
12:39AM 39.5384 -111.0720 75° East  Level Estimated
12:40AM 39.5726 -110.8990 76° East  Level FlightAware Approximate
12:41AM 39.6065 -110.7260 76° East  Level FlightAware Approximate
12:42AM 39.6185 -110.5480 78° East  Level Estimated
12:43AM 39.6302 -110.3700 81° East  Level Estimated
12:44AM 39.6417 -110.1919 74° East  Level Estimated
12:45AM 39.6529 -110.0138 106° East  Level Estimated
12:46AM 39.6856 -109.8401 76° East  Level FlightAware Approximate
12:47AM 39.6956 -109.6618 103° East  Level Estimated
12:48AM 39.7052 -109.4834 90° East  Level Estimated
12:49AM 39.7146 -109.3049 100° East  Level Estimated
12:50AM 39.7237 -109.1264 99° East  Level Estimated
12:51AM 39.7325 -108.9478 101° East  Level Estimated
12:52AM 39.7411 -108.7692 170° South  Level Estimated
12:53AM 39.7493 -108.5905 171° South  Level Estimated
12:54AM 39.7576 -108.4118 87° East  Level FlightAware Approximate
12:55AM 39.7653 -108.2331 180° South  Level Estimated
12:56AM 39.7727 -108.0543 180° South  Level Estimated
12:57AM 39.7799 -107.8755 180° South  Level Estimated
12:58AM 39.7868 -107.6967 180° South  Level Estimated
12:59AM 39.7934 -107.5178 180° South  Level Estimated
01:00AM 39.7998 -107.3389 180° South  Level Estimated
01:01AM 39.8058 -107.1599 180° South  Level Estimated
01:02AM 39.8116 -106.9809 180° South  Level Estimated
01:03AM 39.8172 -106.8019 180° South  Level Estimated
01:04AM 39.8224 -106.6229 180° South  Level Estimated
01:05AM 39.8274 -106.4438 180° South  Level Estimated
01:06AM 39.8321 -106.2647 180° South  Level Estimated
01:07AM 39.8365 -106.0856 180° South  Level Estimated
01:08AM 39.8406 -105.9064 180° South  Level Estimated
01:09AM 39.8445 -105.7273 180° South  Level Estimated
01:10AM 39.8481 -105.5481 180° South  Level Estimated
01:11AM 39.8514 -105.3689 180° South  Level Estimated
01:12AM 39.8544 -105.1897 180° South  Level Estimated
01:13AM 39.8572 -105.0105 180° South  Level Estimated
01:14AM 39.8597 -104.8312 180° South  Level Estimated
01:15AM 39.8500 -104.6667 180° South  Level FlightAware Approximate
01:16AM 39.8617 -104.6732 180° South  Level Estimated
01:17AM 39.8617 -104.6732 180° South  Level Estimated
01:18AM 39.8617 -104.6732 180° South  Level Estimated
01:19AM 39.8617 -104.6732 180° South  Level Estimated
01:20AM 39.8617 -104.6732 180° South  Level Estimated
01:21AM 39.8617 -104.6732 180° South  Level Estimated
01:22AM 39.8617 -104.6732 180° South  Level Estimated
01:23AM 39.8617 -104.6732 180° South  Level Estimated
01:24AM 39.8617 -104.6732 180° South  Level Estimated
01:25AM 39.8617 -104.6732 180° South  Level Estimated
01:26AM 39.8617 -104.6732 180° South  Level Estimated
01:27AM 39.8617 -104.6732 180° South  Level Estimated
01:28AM 39.8617 -104.6732 180° South  Level Estimated
01:29AM 39.8617 -104.6732 180° South  Level Estimated
01:30AM 39.8617 -104.6732 180° South  Level Estimated
01:31AM 39.8617 -104.6732 180° South  Level Estimated
01:32AM 39.8617 -104.6732 180° South  Level Estimated